createdAt,value
2023-05-11T00:00:22.565Z,9.62
2023-05-11T00:01:22.539Z,9.62
2023-05-11T00:02:22.549Z,9.58
2023-05-11T00:03:22.676Z,9.55
2023-05-11T00:04:22.548Z,9.51
2023-05-11T00:05:22.510Z,9.46
2023-05-11T00:06:22.474Z,9.44
2023-05-11T00:07:22.482Z,9.40
2023-05-11T00:08:22.451Z,9.39
2023-05-11T00:09:22.505Z,9.32
2023-05-11T00:10:22.434Z,9.26
2023-05-11T00:11:22.417Z,9.26
2023-05-11T00:12:22.395Z,9.23
2023-05-11T00:13:22.401Z,9.14
2023-05-11T00:14:22.423Z,9.06
2023-05-11T00:15:22.365Z,9.14
2023-05-11T00:16:22.410Z,8.92
2023-05-11T00:17:22.352Z,9.11
2023-05-11T00:18:22.393Z,9.06
2023-05-11T00:19:22.369Z,9.03
2023-05-11T00:20:22.309Z,8.79
2023-05-11T00:21:22.294Z,8.94
2023-05-11T00:22:22.269Z,8.92
2023-05-11T00:23:22.313Z,8.89
2023-05-11T00:24:22.254Z,8.91
2023-05-11T00:25:22.259Z,8.88
2023-05-11T00:26:22.252Z,8.70
2023-05-11T00:27:22.228Z,8.85
2023-05-11T00:28:22.236Z,8.85
2023-05-11T00:29:22.199Z,8.64
2023-05-11T00:30:22.195Z,8.87
2023-05-11T00:31:22.239Z,8.58
2023-05-11T00:32:22.291Z,8.82
2023-05-11T00:33:22.189Z,8.79
2023-05-11T00:34:22.142Z,8.76
2023-05-11T00:35:22.156Z,8.56
2023-05-11T00:36:22.115Z,8.73
2023-05-11T00:37:22.147Z,8.48
2023-05-11T00:38:22.080Z,8.64
2023-05-11T00:39:22.102Z,8.63
2023-05-11T00:40:22.078Z,8.58
2023-05-11T00:41:22.078Z,8.53
2023-05-11T00:42:22.089Z,8.60
2023-05-11T00:43:22.046Z,8.42
2023-05-11T00:44:22.020Z,8.69
2023-05-11T00:45:22.042Z,8.49
2023-05-11T00:46:22.074Z,8.44
2023-05-11T00:47:22.032Z,8.63
2023-05-11T00:48:21.994Z,8.67
2023-05-11T00:49:21.962Z,8.42
2023-05-11T00:50:21.955Z,8.63
2023-05-11T00:51:21.973Z,8.67
2023-05-11T00:52:21.961Z,8.45
2023-05-11T00:53:21.931Z,8.64
2023-05-11T00:54:21.922Z,8.41
2023-05-11T00:55:21.928Z,8.42
2023-05-11T00:56:21.931Z,8.55
2023-05-11T00:57:21.893Z,8.55
2023-05-11T00:58:21.882Z,8.49
2023-05-11T00:59:21.858Z,8.26
2023-05-11T01:00:21.868Z,8.46
2023-05-11T01:01:21.995Z,8.26
2023-05-11T01:02:21.883Z,8.42
2023-05-11T01:03:21.832Z,8.41
2023-05-11T01:04:21.789Z,8.37
2023-05-11T01:05:21.839Z,8.31
2023-05-11T01:06:21.825Z,8.08
2023-05-11T01:07:21.798Z,8.06
2023-05-11T01:08:21.769Z,8.24
2023-05-11T01:09:21.774Z,8.00
2023-05-11T01:10:21.793Z,8.20
2023-05-11T01:11:21.781Z,8.16
2023-05-11T01:12:21.739Z,7.95
2023-05-11T01:13:21.714Z,8.19
2023-05-11T01:14:21.711Z,8.23
2023-05-11T01:15:21.771Z,8.18
2023-05-11T01:16:21.697Z,7.94
2023-05-11T01:17:21.653Z,8.13
2023-05-11T01:18:21.672Z,8.10
2023-05-11T01:19:21.661Z,7.83
2023-05-11T01:20:21.660Z,8.03
2023-05-11T01:21:21.624Z,7.80
2023-05-11T01:22:21.601Z,7.98
2023-05-11T01:23:21.594Z,7.73
2023-05-11T01:24:21.650Z,7.70
2023-05-11T01:25:21.599Z,7.91
2023-05-11T01:26:21.562Z,7.88
2023-05-11T01:27:21.567Z,7.87
2023-05-11T01:28:21.550Z,7.66
2023-05-11T01:29:21.570Z,7.88
2023-05-11T01:30:21.529Z,7.63
2023-05-11T01:31:21.533Z,7.66
2023-05-11T01:32:21.521Z,7.90
2023-05-11T01:33:21.505Z,7.97
2023-05-11T01:34:21.547Z,7.76
2023-05-11T01:35:21.472Z,8.05
2023-05-11T01:36:21.455Z,8.08
2023-05-11T01:37:21.447Z,7.90
2023-05-11T01:38:21.471Z,8.15
2023-05-11T01:39:21.447Z,7.95
2023-05-11T01:40:21.440Z,8.24
2023-05-11T01:41:21.408Z,8.09
2023-05-11T01:42:21.390Z,8.37
2023-05-11T01:43:21.415Z,8.18
2023-05-11T01:44:21.364Z,8.38
2023-05-11T01:45:21.356Z,8.38
2023-05-11T01:46:21.341Z,8.15
2023-05-11T01:47:21.309Z,8.16
2023-05-11T01:48:21.346Z,8.36
2023-05-11T01:49:21.302Z,8.08
2023-05-11T01:50:21.394Z,8.28
2023-05-11T01:51:21.305Z,8.00
2023-05-11T01:52:21.328Z,8.06
2023-05-11T01:53:21.286Z,8.27
2023-05-11T01:54:21.263Z,8.06
2023-05-11T01:55:21.242Z,8.23
2023-05-11T01:56:21.209Z,7.97
2023-05-11T01:57:21.251Z,8.06
2023-05-11T01:58:21.188Z,8.06
2023-05-11T01:59:21.209Z,8.26
2023-05-11T02:00:21.309Z,8.01
2023-05-11T02:01:21.194Z,8.18
2023-05-11T02:02:21.221Z,8.20
2023-05-11T02:03:21.204Z,7.98
2023-05-11T02:04:21.143Z,7.90
2023-05-11T02:05:21.137Z,7.98
2023-05-11T02:06:21.151Z,7.82
2023-05-11T02:07:21.149Z,8.05
2023-05-11T02:08:21.081Z,8.00
2023-05-11T02:09:21.079Z,7.76
2023-05-11T02:10:21.252Z,7.93
2023-05-11T02:11:21.091Z,7.83
2023-05-11T02:12:21.059Z,7.56
2023-05-11T02:13:21.032Z,7.72
2023-05-11T02:14:21.039Z,7.77
2023-05-11T02:15:20.996Z,7.60
2023-05-11T02:16:21.057Z,7.93
2023-05-11T02:17:20.972Z,7.94
2023-05-11T02:18:21.051Z,7.72
2023-05-11T02:19:20.950Z,7.97
2023-05-11T02:20:21.098Z,7.87
2023-05-11T02:21:20.987Z,8.15
2023-05-11T02:22:20.912Z,8.20
2023-05-11T02:23:20.907Z,8.00
2023-05-11T02:24:20.898Z,8.28
2023-05-11T02:25:20.919Z,8.06
2023-05-11T02:26:20.905Z,8.28
2023-05-11T02:27:20.891Z,8.36
2023-05-11T02:28:20.871Z,8.26
2023-05-11T02:29:20.845Z,8.36
2023-05-11T02:30:21.033Z,8.64
2023-05-11T02:31:20.838Z,8.70
2023-05-11T02:32:20.828Z,8.56
2023-05-11T02:33:20.813Z,8.56
2023-05-11T02:34:20.928Z,8.82
2023-05-11T02:35:20.825Z,8.85
2023-05-11T02:36:20.773Z,8.60
2023-05-11T02:37:20.764Z,8.91
2023-05-11T02:38:20.759Z,8.82
2023-05-11T02:39:20.761Z,9.03
2023-05-11T02:40:20.978Z,9.16
2023-05-11T02:41:20.722Z,9.08
2023-05-11T02:42:20.727Z,9.08
2023-05-11T02:43:20.686Z,9.34
2023-05-11T02:44:20.718Z,9.37
2023-05-11T02:45:20.660Z,9.36
2023-05-11T02:46:20.676Z,9.29
2023-05-11T02:47:20.676Z,9.03
2023-05-11T02:48:20.687Z,9.00
2023-05-11T02:49:20.670Z,8.91
2023-05-11T02:50:20.795Z,8.73
2023-05-11T02:51:20.606Z,8.73
2023-05-11T02:52:20.586Z,8.89
2023-05-11T02:53:20.576Z,8.76
2023-05-11T02:54:20.567Z,8.92
2023-05-11T02:55:20.563Z,8.88
2023-05-11T02:56:20.557Z,8.85
2023-05-11T02:57:20.555Z,8.52
2023-05-11T02:58:20.642Z,8.76
2023-05-11T02:59:20.493Z,8.74
2023-05-11T03:00:21.004Z,8.73
2023-05-11T03:01:20.590Z,8.70
2023-05-11T03:02:20.590Z,8.64
2023-05-11T03:03:20.580Z,8.42
2023-05-11T03:04:20.465Z,8.64
2023-05-11T03:05:20.447Z,8.60
2023-05-11T03:06:20.421Z,8.60
2023-05-11T03:07:20.446Z,8.36
2023-05-11T03:08:20.431Z,8.37
2023-05-11T03:09:20.404Z,8.37
2023-05-11T03:10:20.719Z,8.60
2023-05-11T03:11:20.354Z,8.60
2023-05-11T03:12:20.378Z,8.58
2023-05-11T03:13:20.365Z,8.60
2023-05-11T03:14:20.354Z,8.63
2023-05-11T03:15:20.339Z,8.60
2023-05-11T03:16:21.293Z,8.38
2023-05-11T03:17:20.333Z,8.56
2023-05-11T03:18:20.335Z,8.56
2023-05-11T03:19:20.285Z,8.52
2023-05-11T03:20:20.436Z,8.42
2023-05-11T03:21:20.323Z,8.37
2023-05-11T03:22:20.271Z,8.52
2023-05-11T03:23:20.225Z,8.51
2023-05-11T03:24:20.238Z,8.46
2023-05-11T03:25:20.235Z,8.45
2023-05-11T03:26:20.235Z,8.46
2023-05-11T03:27:20.189Z,8.48
2023-05-11T03:28:20.179Z,8.48
2023-05-11T03:29:20.176Z,8.45
2023-05-11T03:30:20.397Z,8.42
2023-05-11T03:31:20.194Z,8.45
2023-05-11T03:32:20.204Z,8.49
2023-05-11T03:33:20.131Z,8.48
2023-05-11T03:34:20.139Z,8.51
2023-05-11T03:35:20.146Z,8.49
2023-05-11T03:36:20.126Z,8.52
2023-05-11T03:37:20.085Z,8.60
2023-05-11T03:38:20.073Z,8.70
2023-05-11T03:39:20.033Z,8.78
2023-05-11T03:40:20.262Z,8.85
2023-05-11T03:41:20.028Z,8.97
2023-05-11T03:42:20.013Z,9.03
2023-05-11T03:43:20.028Z,9.08
2023-05-11T03:44:20.008Z,9.13
2023-05-11T03:45:20.027Z,9.16
2023-05-11T03:46:20.045Z,9.23
2023-05-11T03:47:19.985Z,9.25
2023-05-11T03:48:19.956Z,9.28
2023-05-11T03:49:19.934Z,9.25
2023-05-11T03:50:19.993Z,9.25
2023-05-11T03:51:19.914Z,9.26
2023-05-11T03:52:19.935Z,9.26
2023-05-11T03:53:19.913Z,9.25
2023-05-11T03:54:19.927Z,9.29
2023-05-11T03:55:19.890Z,9.34
2023-05-11T03:56:19.872Z,9.43
2023-05-11T03:57:19.853Z,9.55
2023-05-11T03:58:19.850Z,9.64
2023-05-11T03:59:19.865Z,9.69
2023-05-11T04:00:20.039Z,9.76
2023-05-11T04:01:19.820Z,9.76
2023-05-11T04:02:19.871Z,9.80
2023-05-11T04:03:19.963Z,9.83
2023-05-11T04:04:19.865Z,9.89
2023-05-11T04:05:19.761Z,9.94
2023-05-11T04:06:19.752Z,10.01
2023-05-11T04:07:19.738Z,10.09
2023-05-11T04:08:19.714Z,10.17
2023-05-11T04:09:19.747Z,10.26
2023-05-11T04:10:19.940Z,10.38
2023-05-11T04:11:19.691Z,10.51
2023-05-11T04:12:19.678Z,10.74
2023-05-11T04:13:19.694Z,11.11
2023-05-11T04:14:19.705Z,11.45
2023-05-11T04:15:19.661Z,11.69
2023-05-11T04:16:19.651Z,11.94
2023-05-11T04:17:19.625Z,12.27
2023-05-11T04:18:19.648Z,12.57
2023-05-11T04:19:19.588Z,12.85
2023-05-11T04:20:19.885Z,13.13
2023-05-11T04:21:19.585Z,13.37
2023-05-11T04:22:19.578Z,13.56
2023-05-11T04:23:19.601Z,13.63
2023-05-11T04:24:19.556Z,13.99
2023-05-11T04:25:19.547Z,14.08
2023-05-11T04:26:19.530Z,14.18
2023-05-11T04:27:19.559Z,14.17
2023-05-11T04:28:19.536Z,14.36
2023-05-11T04:29:19.500Z,14.43
2023-05-11T04:30:19.744Z,14.58
2023-05-11T04:31:19.509Z,14.73
2023-05-11T04:32:19.504Z,14.85
2023-05-11T04:33:19.484Z,14.97
2023-05-11T04:34:19.466Z,14.82
2023-05-11T04:35:19.406Z,14.84
2023-05-11T04:36:19.405Z,14.94
2023-05-11T04:37:19.415Z,15.07
2023-05-11T04:38:19.393Z,15.03
2023-05-11T04:39:19.357Z,15.07
2023-05-11T04:40:19.458Z,15.21
2023-05-11T04:41:19.333Z,15.40
2023-05-11T04:42:19.385Z,15.28
2023-05-11T04:43:19.303Z,15.28
2023-05-11T04:44:19.336Z,15.51
2023-05-11T04:45:19.293Z,15.55
2023-05-11T04:46:19.405Z,15.09
2023-05-11T04:47:19.302Z,15.36
2023-05-11T04:48:20.879Z,15.28
2023-05-11T04:49:19.250Z,15.65
2023-05-11T04:50:19.472Z,15.70
2023-05-11T04:51:19.264Z,15.70
2023-05-11T04:52:19.231Z,15.75
2023-05-11T04:53:19.214Z,15.70
2023-05-11T04:54:19.219Z,16.05
2023-05-11T04:55:19.191Z,15.97
2023-05-11T04:56:19.215Z,15.46
2023-05-11T04:57:19.163Z,15.42
2023-05-11T04:58:19.174Z,15.83
2023-05-11T04:59:19.134Z,16.10
2023-05-11T05:00:19.482Z,16.05
2023-05-11T05:01:19.175Z,16.15
2023-05-11T05:02:19.167Z,16.00
2023-05-11T05:03:19.137Z,16.12
2023-05-11T05:04:19.286Z,15.80
2023-05-11T05:05:19.123Z,15.98
2023-05-11T05:06:19.080Z,16.29
2023-05-11T05:07:19.063Z,16.16
2023-05-11T05:08:19.027Z,16.76
2023-05-11T05:09:19.013Z,16.90
2023-05-11T05:10:19.318Z,17.27
2023-05-11T05:11:19.004Z,17.27
2023-05-11T05:12:19.011Z,17.39
2023-05-11T05:13:18.982Z,17.29
2023-05-11T05:14:19.002Z,17.52
2023-05-11T05:15:18.993Z,17.33
2023-05-11T05:16:18.979Z,17.52
2023-05-11T05:17:18.949Z,17.74
2023-05-11T05:18:18.997Z,17.94
2023-05-11T05:19:18.943Z,18.08
2023-05-11T05:20:19.246Z,18.49
2023-05-11T05:21:18.919Z,18.16
2023-05-11T05:22:18.874Z,18.71
2023-05-11T05:23:18.872Z,18.63
2023-05-11T05:24:18.920Z,18.73
2023-05-11T05:25:18.840Z,19.16
2023-05-11T05:26:18.859Z,19.22
2023-05-11T05:27:18.833Z,18.80
2023-05-11T05:28:18.809Z,18.50
2023-05-11T05:29:18.868Z,17.41
2023-05-11T05:30:18.974Z,17.46
2023-05-11T05:31:18.847Z,17.98
2023-05-11T05:32:18.785Z,17.94
2023-05-11T05:33:18.799Z,18.62
2023-05-11T05:34:18.788Z,18.75
2023-05-11T05:35:18.748Z,18.66
2023-05-11T05:36:18.725Z,18.84
2023-05-11T05:37:18.716Z,18.58
2023-05-11T05:38:18.742Z,18.16
2023-05-11T05:39:18.716Z,17.98
2023-05-11T05:40:18.898Z,17.87
2023-05-11T05:41:18.691Z,17.44
2023-05-11T05:42:18.655Z,17.86
2023-05-11T05:43:18.681Z,18.50
2023-05-11T05:44:18.624Z,18.41
2023-05-11T05:45:18.628Z,17.94
2023-05-11T05:46:18.667Z,17.68
2023-05-11T05:47:18.645Z,18.50
2023-05-11T05:48:18.624Z,19.07
2023-05-11T05:49:18.563Z,19.24
2023-05-11T05:50:18.693Z,19.15
2023-05-11T05:51:18.557Z,18.92
2023-05-11T05:52:18.598Z,18.68
2023-05-11T05:53:18.549Z,18.53
2023-05-11T05:54:18.541Z,18.75
2023-05-11T05:55:18.537Z,18.50
2023-05-11T05:56:18.531Z,18.60
2023-05-11T05:57:18.525Z,18.62
2023-05-11T05:58:18.478Z,18.75
2023-05-11T05:59:18.454Z,19.15
2023-05-11T06:00:18.765Z,18.96
2023-05-11T06:01:18.488Z,19.37
2023-05-11T06:02:18.488Z,19.63
2023-05-11T06:03:18.557Z,19.84
2023-05-11T06:04:18.555Z,20.29
2023-05-11T06:05:18.439Z,20.13
2023-05-11T06:06:18.412Z,20.18
2023-05-11T06:07:18.454Z,20.51
2023-05-11T06:08:18.374Z,20.40
2023-05-11T06:09:18.349Z,20.74
2023-05-11T06:10:18.600Z,20.82
2023-05-11T06:11:18.342Z,20.75
2023-05-11T06:12:18.327Z,20.70
2023-05-11T06:13:18.288Z,20.28
2023-05-11T06:14:18.298Z,20.14
2023-05-11T06:15:18.339Z,20.21
2023-05-11T06:16:18.302Z,20.26
2023-05-11T06:17:18.296Z,20.70
2023-05-11T06:18:18.291Z,20.81
2023-05-11T06:19:18.241Z,20.34
2023-05-11T06:20:18.628Z,20.85
2023-05-11T06:21:18.230Z,20.92
2023-05-11T06:22:18.212Z,21.61
2023-05-11T06:23:18.209Z,21.45
2023-05-11T06:24:18.192Z,20.97
2023-05-11T06:25:18.219Z,20.55
2023-05-11T06:26:18.142Z,20.80
2023-05-11T06:27:18.456Z,20.34
2023-05-11T06:28:18.131Z,20.02
2023-05-11T06:29:18.166Z,20.43
2023-05-11T06:30:18.385Z,20.32
2023-05-11T06:31:18.163Z,20.69
2023-05-11T06:32:18.082Z,21.05
2023-05-11T06:33:18.096Z,21.25
2023-05-11T06:34:18.111Z,21.20
2023-05-11T06:35:18.056Z,21.80
2023-05-11T06:36:18.043Z,22.59
2023-05-11T06:37:18.036Z,22.72
2023-05-11T06:38:18.034Z,22.41
2023-05-11T06:39:18.054Z,22.29
2023-05-11T06:40:18.148Z,22.23
2023-05-11T06:41:17.986Z,22.53
2023-05-11T06:42:18.020Z,22.94
2023-05-11T06:43:18.014Z,21.93
2023-05-11T06:44:17.993Z,22.44
2023-05-11T06:45:18.007Z,22.38
2023-05-11T06:46:18.099Z,21.67
2023-05-11T06:47:17.939Z,21.40
2023-05-11T06:48:17.989Z,21.58
2023-05-11T06:49:17.904Z,21.73
2023-05-11T06:50:20.203Z,21.91
2023-05-11T06:51:17.898Z,22.69
2023-05-11T06:52:17.859Z,22.47
2023-05-11T06:53:17.962Z,22.41
2023-05-11T06:54:17.841Z,21.82
2023-05-11T06:55:17.836Z,21.42
2023-05-11T06:56:17.836Z,21.20
2023-05-11T06:57:17.879Z,21.92
2023-05-11T06:58:17.847Z,21.79
2023-05-11T06:59:17.798Z,21.24
2023-05-11T07:00:18.031Z,21.76
2023-05-11T07:01:17.789Z,22.10
2023-05-11T07:02:17.801Z,22.30
2023-05-11T07:03:17.834Z,22.48
2023-05-11T07:04:17.767Z,22.62
2023-05-11T07:05:17.725Z,23.24
2023-05-11T07:06:17.734Z,23.02
2023-05-11T07:07:17.744Z,22.59
2023-05-11T07:08:17.733Z,22.53
2023-05-11T07:09:17.682Z,22.32
2023-05-11T07:10:17.798Z,22.32
2023-05-11T07:11:17.718Z,21.82
2023-05-11T07:12:17.681Z,22.25
2023-05-11T07:13:17.636Z,22.26
2023-05-11T07:14:17.629Z,21.66
2023-05-11T07:15:17.617Z,21.69
2023-05-11T07:16:17.665Z,22.06
2023-05-11T07:17:17.595Z,22.33
2023-05-11T07:18:17.649Z,22.72
2023-05-11T07:19:17.544Z,22.29
2023-05-11T07:20:17.808Z,21.89
2023-05-11T07:21:17.595Z,22.60
2023-05-11T07:22:17.540Z,23.32
2023-05-11T07:23:17.530Z,23.63
2023-05-11T07:24:17.530Z,23.28
2023-05-11T07:25:17.501Z,22.54
2023-05-11T07:26:17.544Z,22.20
2023-05-11T07:27:17.495Z,22.35
2023-05-11T07:28:17.465Z,22.29
2023-05-11T07:29:17.482Z,22.26
2023-05-11T07:30:18.665Z,22.33
2023-05-11T07:31:17.477Z,22.69
2023-05-11T07:32:17.422Z,22.60
2023-05-11T07:33:17.436Z,22.93
2023-05-11T07:34:17.408Z,22.73
2023-05-11T07:35:17.440Z,21.83
2023-05-11T07:36:17.365Z,21.79
2023-05-11T07:37:17.373Z,21.92
2023-05-11T07:38:17.364Z,22.43
2023-05-11T07:39:17.424Z,22.51
2023-05-11T07:40:17.709Z,22.25
2023-05-11T07:41:17.347Z,22.60
2023-05-11T07:42:17.286Z,22.91
2023-05-11T07:43:17.313Z,23.12
2023-05-11T07:44:17.317Z,22.91
2023-05-11T07:45:18.124Z,22.70
2023-05-11T07:46:17.286Z,23.39
2023-05-11T07:47:17.251Z,23.83
2023-05-11T07:48:17.257Z,23.84
2023-05-11T07:49:22.899Z,24.08
2023-05-11T07:50:18.548Z,23.65
2023-05-11T07:51:17.234Z,23.23
2023-05-11T07:52:17.186Z,23.17
2023-05-11T07:53:17.261Z,23.28
2023-05-11T07:54:18.834Z,23.09
2023-05-11T07:55:17.374Z,22.90
2023-05-11T07:56:17.153Z,22.96
2023-05-11T07:57:17.164Z,22.73
2023-05-11T07:58:17.170Z,22.11
2023-05-11T07:59:17.139Z,22.54
2023-05-11T08:00:17.487Z,23.09
2023-05-11T08:01:17.116Z,23.48
2023-05-11T08:02:17.152Z,23.48
2023-05-11T08:03:17.166Z,23.50
2023-05-11T08:04:17.085Z,24.11
2023-05-11T08:05:17.149Z,24.28
2023-05-11T08:06:17.151Z,24.61
2023-05-11T08:07:17.057Z,24.95
2023-05-11T08:08:17.059Z,24.99
2023-05-11T08:09:17.020Z,24.43
2023-05-11T08:10:17.012Z,24.45
2023-05-11T08:11:17.016Z,24.89
2023-05-11T08:12:17.030Z,24.85
2023-05-11T08:13:17.331Z,24.86
2023-05-11T08:14:16.947Z,25.01
2023-05-11T08:15:17.296Z,24.42
2023-05-11T08:16:17.039Z,23.91
2023-05-11T08:17:16.997Z,23.21
2023-05-11T08:18:16.908Z,22.84
2023-05-11T08:19:16.934Z,22.30
2023-05-11T08:20:16.927Z,22.62
2023-05-11T08:21:16.933Z,23.40
2023-05-11T08:22:16.912Z,23.74
2023-05-11T08:23:16.913Z,24.36
2023-05-11T08:24:16.898Z,24.43
2023-05-11T08:25:17.000Z,24.60
2023-05-11T08:26:16.868Z,24.88
2023-05-11T08:27:16.861Z,24.77
2023-05-11T08:28:16.833Z,24.26
2023-05-11T08:29:16.796Z,23.51
2023-05-11T08:30:16.828Z,22.70
2023-05-11T08:31:16.875Z,22.81
2023-05-11T08:32:16.840Z,23.15
2023-05-11T08:33:35.775Z,24.05
2023-05-11T08:34:20.216Z,24.74
2023-05-11T08:35:17.055Z,24.93
2023-05-11T08:36:16.748Z,24.88
2023-05-11T08:37:16.708Z,24.57
2023-05-11T08:38:16.695Z,24.35
2023-05-11T08:39:28.362Z,24.57
2023-05-11T08:40:17.727Z,23.95
2023-05-11T08:41:16.660Z,23.51
2023-05-11T08:42:16.674Z,23.92
2023-05-11T08:43:16.682Z,23.58
2023-05-11T08:44:16.711Z,23.28
2023-05-11T08:45:17.057Z,22.78
2023-05-11T08:46:16.656Z,23.08
2023-05-11T08:47:23.407Z,23.93
2023-05-11T08:48:17.600Z,24.38
2023-05-11T08:49:16.621Z,24.08
2023-05-11T08:50:16.626Z,23.99
2023-05-11T08:51:16.561Z,24.08
2023-05-11T08:52:16.587Z,24.14
2023-05-11T08:53:16.549Z,24.24
2023-05-11T08:54:16.599Z,24.48
2023-05-11T08:55:16.908Z,24.55
2023-05-11T08:56:16.494Z,24.23
2023-05-11T08:57:16.514Z,23.48
2023-05-11T08:58:16.492Z,23.55
2023-05-11T08:59:16.513Z,23.47
2023-05-11T09:00:16.474Z,23.46
2023-05-11T09:01:16.522Z,23.23
2023-05-11T09:02:16.449Z,23.21
2023-05-11T09:03:16.443Z,23.34
2023-05-11T09:04:16.483Z,23.20
2023-05-11T09:05:16.550Z,22.83
2023-05-11T09:06:16.396Z,23.00
2023-05-11T09:07:16.405Z,23.44
2023-05-11T09:08:16.445Z,23.59
2023-05-11T09:09:16.403Z,23.84
2023-05-11T09:10:16.364Z,24.47
2023-05-11T09:11:16.342Z,24.74
2023-05-11T09:12:16.322Z,24.47
2023-05-11T09:13:16.393Z,24.81
2023-05-11T09:14:16.301Z,24.74
2023-05-11T09:15:16.293Z,24.99
2023-05-11T09:16:35.773Z,24.69
2023-05-11T09:17:17.278Z,25.25
2023-05-11T09:18:16.306Z,24.55
2023-05-11T09:19:16.462Z,24.35
2023-05-11T09:20:16.563Z,24.61
2023-05-11T09:21:16.234Z,25.59
2023-05-11T09:22:16.266Z,25.88
2023-05-11T09:23:16.268Z,25.07
2023-05-11T09:24:16.207Z,24.61
2023-05-11T09:25:16.355Z,24.17
2023-05-11T09:26:16.233Z,24.74
2023-05-11T09:27:21.330Z,25.13
2023-05-11T09:28:24.884Z,25.11
2023-05-11T09:29:17.147Z,25.78
2023-05-11T09:30:22.270Z,25.47
2023-05-11T09:31:17.169Z,25.01
2023-05-11T09:32:16.170Z,24.98
2023-05-11T09:33:16.118Z,24.55
2023-05-11T09:34:16.093Z,24.86
2023-05-11T09:35:16.135Z,24.74
2023-05-11T09:36:16.122Z,25.08
2023-05-11T09:37:16.122Z,24.73
2023-05-11T09:38:16.037Z,24.77
2023-05-11T09:39:35.022Z,25.03
2023-05-11T09:40:27.029Z,24.28
2023-05-11T09:41:17.084Z,24.38
2023-05-11T09:42:16.010Z,24.85
2023-05-11T09:43:16.019Z,24.28
2023-05-11T09:44:16.023Z,25.17
2023-05-11T09:45:16.089Z,25.04
2023-05-11T09:46:16.133Z,25.33
2023-05-11T09:47:16.655Z,25.48
2023-05-11T09:48:16.007Z,25.93
2023-05-11T09:49:16.000Z,25.66
2023-05-11T09:50:15.973Z,25.81
2023-05-11T09:51:15.945Z,25.03
2023-05-11T09:52:15.903Z,24.73
2023-05-11T09:53:15.946Z,25.18
2023-05-11T09:54:15.934Z,25.96
2023-05-11T09:55:16.197Z,25.62
2023-05-11T09:56:15.932Z,25.77
2023-05-11T09:57:15.865Z,24.78
2023-05-11T09:58:15.861Z,23.95
2023-05-11T09:59:15.905Z,24.13
2023-05-11T10:00:15.899Z,23.88
2023-05-11T10:01:15.846Z,23.95
2023-05-11T10:02:18.172Z,23.91
2023-05-11T10:03:15.848Z,23.36
2023-05-11T10:05:16.970Z,22.76
2023-05-11T10:06:16.490Z,22.53
2023-05-11T10:07:15.741Z,23.12
2023-05-11T10:08:15.770Z,22.88
2023-05-11T10:09:15.816Z,22.68
2023-05-11T10:10:15.798Z,22.62
2023-05-11T10:11:15.749Z,22.44
2023-05-11T10:12:15.702Z,22.47
2023-05-11T10:13:15.713Z,22.50
2023-05-11T10:14:15.717Z,22.63
2023-05-11T10:15:15.672Z,22.53
2023-05-11T10:16:15.692Z,22.65
2023-05-11T10:17:15.634Z,22.87
2023-05-11T10:18:16.494Z,22.87
2023-05-11T10:19:15.733Z,22.72
2023-05-11T10:20:15.674Z,22.72
2023-05-11T10:21:15.622Z,23.12
2023-05-11T10:22:15.622Z,23.05
2023-05-11T10:23:15.705Z,22.66
2023-05-11T10:24:16.341Z,22.35
2023-05-11T10:25:15.576Z,22.23
2023-05-11T10:26:15.565Z,22.35
2023-05-11T10:27:15.568Z,22.30
2023-05-11T10:28:15.579Z,22.45
2023-05-11T10:29:15.518Z,22.57
2023-05-11T10:30:15.582Z,22.87
2023-05-11T10:31:15.514Z,23.20
2023-05-11T10:32:15.528Z,23.24
2023-05-11T10:33:15.524Z,23.06
2023-05-11T10:34:15.501Z,22.98
2023-05-11T10:35:15.467Z,23.50
2023-05-11T10:36:19.222Z,23.44
2023-05-11T10:37:15.522Z,23.61
2023-05-11T10:38:15.470Z,23.21
2023-05-11T10:39:15.444Z,22.80
2023-05-11T10:40:15.516Z,23.05
2023-05-11T10:41:15.395Z,22.81
2023-05-11T10:42:15.426Z,22.69
2023-05-11T10:43:15.370Z,22.38
2023-05-11T10:44:15.364Z,22.26
2023-05-11T10:45:15.371Z,22.10
2023-05-11T10:46:15.390Z,22.07
2023-05-11T10:47:15.386Z,22.25
2023-05-11T10:48:15.325Z,22.41
2023-05-11T10:49:15.291Z,22.39
2023-05-11T10:50:15.365Z,22.55
2023-05-11T10:51:15.327Z,22.72
2023-05-11T10:52:15.305Z,22.44
2023-05-11T10:53:15.270Z,22.26
2023-05-11T10:54:15.334Z,22.45
2023-05-11T10:55:15.389Z,22.68
2023-05-11T10:56:15.260Z,22.80
2023-05-11T10:57:15.237Z,22.81
2023-05-11T10:58:15.230Z,23.12
2023-05-11T10:59:15.202Z,23.93
2023-05-11T11:00:15.316Z,24.05
2023-05-11T11:01:15.300Z,24.01
2023-05-11T11:02:15.174Z,24.21
2023-05-11T11:03:15.162Z,24.42
2023-05-11T11:04:15.197Z,24.42
2023-05-11T11:05:15.257Z,24.50
2023-05-11T11:06:15.165Z,24.30
2023-05-11T11:07:15.120Z,23.96
2023-05-11T11:08:15.133Z,23.87
2023-05-11T11:09:15.112Z,24.36
2023-05-11T11:10:15.109Z,24.66
2023-05-11T11:11:15.073Z,24.23
2023-05-11T11:12:15.059Z,23.69
2023-05-11T11:13:15.108Z,23.87
2023-05-11T11:14:15.112Z,23.83
2023-05-11T11:15:15.113Z,23.65
2023-05-11T11:16:16.656Z,23.77
2023-05-11T11:17:15.193Z,23.96
2023-05-11T11:18:15.034Z,23.66
2023-05-11T11:19:15.030Z,23.80
2023-05-11T11:20:15.000Z,23.39
2023-05-11T11:21:14.973Z,23.13
2023-05-11T11:22:14.977Z,23.21
2023-05-11T11:23:14.964Z,23.37
2023-05-11T11:24:14.993Z,23.41
2023-05-11T11:25:14.921Z,23.37
2023-05-11T11:26:14.934Z,23.20
2023-05-11T11:27:14.913Z,23.13
2023-05-11T11:28:14.915Z,22.88
2023-05-11T11:29:14.901Z,22.73
2023-05-11T11:30:14.935Z,22.48
2023-05-11T11:31:14.878Z,22.26
2023-05-11T11:32:14.863Z,21.99
2023-05-11T11:33:14.965Z,21.95
2023-05-11T11:34:14.851Z,21.77
2023-05-11T11:35:14.814Z,22.10
2023-05-11T11:36:14.807Z,22.04
2023-05-11T11:37:14.803Z,22.02
2023-05-11T11:38:14.810Z,22.13
2023-05-11T11:39:14.802Z,22.35
2023-05-11T11:40:15.854Z,22.30
2023-05-11T11:41:14.731Z,22.32
2023-05-11T11:42:14.763Z,22.39
2023-05-11T11:43:14.752Z,22.48
2023-05-11T11:44:14.759Z,22.65
2023-05-11T11:45:14.715Z,22.81
2023-05-11T11:46:14.714Z,23.09
2023-05-11T11:47:14.733Z,22.94
2023-05-11T11:48:14.754Z,23.03
2023-05-11T11:49:14.692Z,23.32
2023-05-11T11:50:14.673Z,23.21
2023-05-11T11:51:14.619Z,23.51
2023-05-11T11:52:14.692Z,23.74
2023-05-11T11:53:14.608Z,23.51
2023-05-11T11:54:14.638Z,23.55
2023-05-11T11:55:14.616Z,23.43
2023-05-11T11:56:14.609Z,23.93
2023-05-11T11:57:14.646Z,24.55
2023-05-11T11:58:14.549Z,24.66
2023-05-11T11:59:14.552Z,24.73
2023-05-11T12:00:14.570Z,25.10
2023-05-11T12:01:14.535Z,25.41
2023-05-11T12:02:14.547Z,25.38
2023-05-11T12:03:14.552Z,24.60
2023-05-11T12:04:14.756Z,23.99
2023-05-11T12:05:14.686Z,23.86
2023-05-11T12:06:14.521Z,23.92
2023-05-11T12:07:14.495Z,24.11
2023-05-11T12:08:14.469Z,24.23
2023-05-11T12:09:14.453Z,24.08
2023-05-11T12:10:14.480Z,23.66
2023-05-11T12:11:14.431Z,23.43
2023-05-11T12:12:14.427Z,23.31
2023-05-11T12:13:14.388Z,23.28
2023-05-11T12:14:14.408Z,23.12
2023-05-11T12:15:14.367Z,23.28
2023-05-11T12:16:14.435Z,23.24
2023-05-11T12:17:14.360Z,23.51
2023-05-11T12:18:14.366Z,23.40
2023-05-11T12:19:14.346Z,23.02
2023-05-11T12:20:14.361Z,22.84
2023-05-11T12:21:14.360Z,22.99
2023-05-11T12:22:14.320Z,23.24
2023-05-11T12:23:14.303Z,23.51
2023-05-11T12:24:14.303Z,23.39
2023-05-11T12:25:14.271Z,23.28
2023-05-11T12:26:14.291Z,23.13
2023-05-11T12:27:14.276Z,23.46
2023-05-11T12:28:14.277Z,23.47
2023-05-11T12:29:14.242Z,23.44
2023-05-11T12:30:14.268Z,23.36
2023-05-11T12:31:14.277Z,23.34
2023-05-11T12:32:14.384Z,23.15
2023-05-11T12:33:14.236Z,22.90
2023-05-11T12:34:14.180Z,22.66
2023-05-11T12:35:14.204Z,22.75
2023-05-11T12:36:14.161Z,22.70
2023-05-11T12:37:14.153Z,22.59
2023-05-11T12:38:14.135Z,22.60
2023-05-11T12:39:14.142Z,22.13
2023-05-11T12:40:14.145Z,22.06
2023-05-11T12:41:14.075Z,22.08
2023-05-11T12:42:14.082Z,22.15
2023-05-11T12:43:14.074Z,22.20
2023-05-11T12:44:14.116Z,21.93
2023-05-11T12:45:14.094Z,21.64
2023-05-11T12:46:14.117Z,21.57
2023-05-11T12:47:14.042Z,21.58
2023-05-11T12:48:14.117Z,21.67
2023-05-11T12:49:14.048Z,21.72
2023-05-11T12:50:14.012Z,21.66
2023-05-11T12:51:13.966Z,21.82
2023-05-11T12:52:13.981Z,21.95
2023-05-11T12:53:14.007Z,22.14
2023-05-11T12:54:13.993Z,22.06
2023-05-11T12:55:14.023Z,22.14
2023-05-11T12:56:13.923Z,22.26
2023-05-11T12:57:13.935Z,22.45
2023-05-11T12:58:13.926Z,22.55
2023-05-11T12:59:13.925Z,22.68
2023-05-11T13:00:13.900Z,22.59
2023-05-11T13:01:13.916Z,22.62